sensor_id;sensor_type;location;lat;lon;timestamp;pressure;altitude;pressure_sealevel;temperature;humidity
57412;BME280;43247;52.828;-8.980;2023-02-23T00:00:08;102605.21;;;6.63;79.69
57412;BME280;43247;52.828;-8.980;2023-02-23T00:01:13;102603.16;;;6.63;79.66
57412;BME280;43247;52.828;-8.980;2023-02-23T00:02:07;102604.20;;;6.65;79.62
57412;BME280;43247;52.828;-8.980;2023-02-23T00:03:08;102603.06;;;6.68;79.45
57412;BME280;43247;52.828;-8.980;2023-02-23T00:04:08;102603.37;;;6.67;79.43
57412;BME280;43247;52.828;-8.980;2023-02-23T00:05:08;102601.50;;;6.65;79.47
57412;BME280;43247;52.828;-8.980;2023-02-23T00:06:09;102604.10;;;6.64;79.53
57412;BME280;43247;52.828;-8.980;2023-02-23T00:07:08;102602.91;;;6.63;79.53
57412;BME280;43247;52.828;-8.980;2023-02-23T00:08:09;102602.84;;;6.62;79.58
57412;BME280;43247;52.828;-8.980;2023-02-23T00:09:09;102605.48;;;6.60;79.63
57412;BME280;43247;52.828;-8.980;2023-02-23T00:10:11;102608.27;;;6.59;79.68
57412;BME280;43247;52.828;-8.980;2023-02-23T00:11:10;102606.70;;;6.58;79.65
57412;BME280;43247;52.828;-8.980;2023-02-23T00:12:09;102606.68;;;6.57;79.68
57412;BME280;43247;52.828;-8.980;2023-02-23T00:13:10;102606.65;;;6.56;79.68
57412;BME280;43247;52.828;-8.980;2023-02-23T00:14:10;102607.63;;;6.55;79.73
57412;BME280;43247;52.828;-8.980;2023-02-23T00:15:11;102604.61;;;6.54;79.72
57412;BME280;43247;52.828;-8.980;2023-02-23T00:16:12;102603.91;;;6.53;79.70
57412;BME280;43247;52.828;-8.980;2023-02-23T00:17:11;102604.92;;;6.54;79.70
57412;BME280;43247;52.828;-8.980;2023-02-23T00:18:11;102604.67;;;6.53;79.71
57412;BME280;43247;52.828;-8.980;2023-02-23T00:19:11;102603.99;;;6.53;79.74
57412;BME280;43247;52.828;-8.980;2023-02-23T00:20:13;102605.29;;;6.52;79.78
57412;BME280;43247;52.828;-8.980;2023-02-23T00:21:14;102605.66;;;6.52;79.78
57412;BME280;43247;52.828;-8.980;2023-02-23T00:22:13;102608.50;;;6.51;79.72
57412;BME280;43247;52.828;-8.980;2023-02-23T00:23:13;102611.05;;;6.51;79.69
57412;BME280;43247;52.828;-8.980;2023-02-23T00:24:13;102610.97;;;6.50;79.72
57412;BME280;43247;52.828;-8.980;2023-02-23T00:25:13;102612.42;;;6.50;79.70
57412;BME280;43247;52.828;-8.980;2023-02-23T00:26:13;102610.14;;;6.49;79.70
57412;BME280;43247;52.828;-8.980;2023-02-23T00:27:14;102611.45;;;6.49;79.71
57412;BME280;43247;52.828;-8.980;2023-02-23T00:28:14;102613.66;;;6.48;79.75
57412;BME280;43247;52.828;-8.980;2023-02-23T00:29:16;102615.00;;;6.47;79.72
57412;BME280;43247;52.828;-8.980;2023-02-23T00:30:17;102617.05;;;6.47;79.69
57412;BME280;43247;52.828;-8.980;2023-02-23T00:31:16;102620.13;;;6.46;79.69
57412;BME280;43247;52.828;-8.980;2023-02-23T00:32:15;102623.22;;;6.46;79.67
57412;BME280;43247;52.828;-8.980;2023-02-23T00:33:15;102624.36;;;6.45;79.70
57412;BME280;43247;52.828;-8.980;2023-02-23T00:34:17;102625.84;;;6.45;79.67
57412;BME280;43247;52.828;-8.980;2023-02-23T00:35:16;102629.17;;;6.44;79.72
57412;BME280;43247;52.828;-8.980;2023-02-23T00:36:16;102630.97;;;6.43;79.69
57412;BME280;43247;52.828;-8.980;2023-02-23T00:37:17;102631.79;;;6.43;79.68
57412;BME280;43247;52.828;-8.980;2023-02-23T00:38:16;102631.93;;;6.42;79.67
57412;BME280;43247;52.828;-8.980;2023-02-23T00:39:17;102632.67;;;6.41;79.65
57412;BME280;43247;52.828;-8.980;2023-02-23T00:40:18;102630.29;;;6.40;79.71
57412;BME280;43247;52.828;-8.980;2023-02-23T00:41:17;102629.71;;;6.40;79.69
57412;BME280;43247;52.828;-8.980;2023-02-23T00:42:17;102629.02;;;6.39;79.67
57412;BME280;43247;52.828;-8.980;2023-02-23T00:43:17;102630.71;;;6.39;79.65
57412;BME280;43247;52.828;-8.980;2023-02-23T00:44:19;102631.78;;;6.38;79.66
57412;BME280;43247;52.828;-8.980;2023-02-23T00:45:18;102635.64;;;6.38;79.66
57412;BME280;43247;52.828;-8.980;2023-02-23T00:46:19;102635.09;;;6.37;79.62
57412;BME280;43247;52.828;-8.980;2023-02-23T00:47:18;102632.79;;;6.36;79.64
57412;BME280;43247;52.828;-8.980;2023-02-23T00:48:18;102635.54;;;6.37;79.65
57412;BME280;43247;52.828;-8.980;2023-02-23T00:49:20;102633.62;;;6.36;79.63
57412;BME280;43247;52.828;-8.980;2023-02-23T00:50:20;102634.62;;;6.35;79.62
57412;BME280;43247;52.828;-8.980;2023-02-23T00:51:21;102633.75;;;6.35;79.61
57412;BME280;43247;52.828;-8.980;2023-02-23T00:52:20;102635.24;;;6.36;79.54
57412;BME280;43247;52.828;-8.980;2023-02-23T00:53:21;102635.17;;;6.36;79.52
57412;BME280;43247;52.828;-8.980;2023-02-23T00:54:21;102634.45;;;6.35;79.61
57412;BME280;43247;52.828;-8.980;2023-02-23T00:55:21;102637.10;;;6.35;79.60
57412;BME280;43247;52.828;-8.980;2023-02-23T00:56:22;102632.83;;;6.34;79.61
57412;BME280;43247;52.828;-8.980;2023-02-23T00:57:22;102632.41;;;6.33;79.59
57412;BME280;43247;52.828;-8.980;2023-02-23T00:58:23;102633.24;;;6.32;79.64
57412;BME280;43247;52.828;-8.980;2023-02-23T00:59:22;102634.98;;;6.32;79.66
57412;BME280;43247;52.828;-8.980;2023-02-23T01:00:22;102634.95;;;6.31;79.65
57412;BME280;43247;52.828;-8.980;2023-02-23T01:01:23;102634.77;;;6.31;79.65
57412;BME280;43247;52.828;-8.980;2023-02-23T01:02:23;102631.89;;;6.30;79.67
57412;BME280;43247;52.828;-8.980;2023-02-23T01:03:23;102632.59;;;6.30;79.64
57412;BME280;43247;52.828;-8.980;2023-02-23T01:04:23;102631.41;;;6.31;79.67
57412;BME280;43247;52.828;-8.980;2023-02-23T01:05:23;102628.20;;;6.30;79.64
57412;BME280;43247;52.828;-8.980;2023-02-23T01:06:23;102627.67;;;6.29;79.67
57412;BME280;43247;52.828;-8.980;2023-02-23T01:07:24;102628.03;;;6.29;79.66
57412;BME280;43247;52.828;-8.980;2023-02-23T01:08:24;102625.40;;;6.28;79.67
57412;BME280;43247;52.828;-8.980;2023-02-23T01:09:24;102623.10;;;6.28;79.66
57412;BME280;43247;52.828;-8.980;2023-02-23T01:10:24;102625.41;;;6.27;79.67
57412;BME280;43247;52.828;-8.980;2023-02-23T01:11:27;102624.71;;;6.27;79.67
57412;BME280;43247;52.828;-8.980;2023-02-23T01:12:25;102625.58;;;6.26;79.70
57412;BME280;43247;52.828;-8.980;2023-02-23T01:13:25;102624.53;;;6.27;79.64
57412;BME280;43247;52.828;-8.980;2023-02-23T01:14:25;102624.80;;;6.27;79.65
57412;BME280;43247;52.828;-8.980;2023-02-23T01:15:26;102624.69;;;6.26;79.66
57412;BME280;43247;52.828;-8.980;2023-02-23T01:16:28;102624.36;;;6.26;79.66
57412;BME280;43247;52.828;-8.980;2023-02-23T01:17:26;102624.19;;;6.25;79.60
57412;BME280;43247;52.828;-8.980;2023-02-23T01:18:26;102626.35;;;6.25;79.62
57412;BME280;43247;52.828;-8.980;2023-02-23T01:19:27;102622.65;;;6.24;79.66
57412;BME280;43247;52.828;-8.980;2023-02-23T01:20:27;102624.33;;;6.23;79.74
57412;BME280;43247;52.828;-8.980;2023-02-23T01:21:29;102625.03;;;6.23;79.75
57412;BME280;43247;52.828;-8.980;2023-02-23T01:22:27;102628.14;;;6.23;79.73
57412;BME280;43247;52.828;-8.980;2023-02-23T01:23:27;102632.54;;;6.22;79.69
57412;BME280;43247;52.828;-8.980;2023-02-23T01:24:28;102635.23;;;6.21;79.69
57412;BME280;43247;52.828;-8.980;2023-02-23T01:25:28;102636.29;;;6.21;79.74
57412;BME280;43247;52.828;-8.980;2023-02-23T01:26:30;102636.86;;;6.20;79.71
57412;BME280;43247;52.828;-8.980;2023-02-23T01:27:28;102636.80;;;6.18;79.77
57412;BME280;43247;52.828;-8.980;2023-02-23T01:28:29;102638.91;;;6.18;79.77
57412;BME280;43247;52.828;-8.980;2023-02-23T01:29:30;102640.07;;;6.17;79.78
57412;BME280;43247;52.828;-8.980;2023-02-23T01:30:30;102641.10;;;6.18;79.77
57412;BME280;43247;52.828;-8.980;2023-02-23T01:31:31;102639.17;;;6.18;79.73
57412;BME280;43247;52.828;-8.980;2023-02-23T01:32:33;102642.61;;;6.17;79.74
57412;BME280;43247;52.828;-8.980;2023-02-23T01:33:31;102644.50;;;6.18;79.73
57412;BME280;43247;52.828;-8.980;2023-02-23T01:34:31;102644.97;;;6.18;79.70
57412;BME280;43247;52.828;-8.980;2023-02-23T01:35:32;102645.91;;;6.18;79.67
57412;BME280;43247;52.828;-8.980;2023-02-23T01:36:33;102643.45;;;6.17;79.67
57412;BME280;43247;52.828;-8.980;2023-02-23T01:37:33;102643.68;;;6.17;79.66
57412;BME280;43247;52.828;-8.980;2023-02-23T01:38:32;102641.70;;;6.16;79.68
57412;BME280;43247;52.828;-8.980;2023-02-23T01:39:32;102640.32;;;6.16;79.70
57412;BME280;43247;52.828;-8.980;2023-02-23T01:40:33;102640.47;;;6.15;79.69
57412;BME280;43247;52.828;-8.980;2023-02-23T01:41:34;102640.37;;;6.16;79.71
57412;BME280;43247;52.828;-8.980;2023-02-23T01:42:36;102640.80;;;6.16;79.71
57412;BME280;43247;52.828;-8.980;2023-02-23T01:43:34;102638.73;;;6.15;79.77
57412;BME280;43247;52.828;-8.980;2023-02-23T01:45:35;102640.70;;;6.15;79.71
57412;BME280;43247;52.828;-8.980;2023-02-23T01:46:36;102641.12;;;6.14;79.66
57412;BME280;43247;52.828;-8.980;2023-02-23T01:47:35;102637.78;;;6.14;79.71
57412;BME280;43247;52.828;-8.980;2023-02-23T01:48:37;102640.59;;;6.14;79.74
57412;BME280;43247;52.828;-8.980;2023-02-23T01:49:35;102639.87;;;6.13;79.76
57412;BME280;43247;52.828;-8.980;2023-02-23T01:50:42;102637.56;;;6.13;79.93
57412;BME280;43247;52.828;-8.980;2023-02-23T01:51:38;102638.25;;;6.13;79.92
57412;BME280;43247;52.828;-8.980;2023-02-23T01:52:37;102639.34;;;6.14;79.82
57412;BME280;43247;52.828;-8.980;2023-02-23T01:53:41;102638.32;;;6.13;79.78
57412;BME280;43247;52.828;-8.980;2023-02-23T01:54:39;102640.98;;;6.13;79.77
57412;BME280;43247;52.828;-8.980;2023-02-23T01:55:37;102637.01;;;6.12;79.82
57412;BME280;43247;52.828;-8.980;2023-02-23T01:56:41;102638.88;;;6.13;79.80
57412;BME280;43247;52.828;-8.980;2023-02-23T01:57:38;102638.49;;;6.13;79.81
57412;BME280;43247;52.828;-8.980;2023-02-23T01:58:42;102637.87;;;6.13;79.81
57412;BME280;43247;52.828;-8.980;2023-02-23T01:59:41;102641.14;;;6.13;79.78
57412;BME280;43247;52.828;-8.980;2023-02-23T02:00:39;102639.74;;;6.13;79.82
57412;BME280;43247;52.828;-8.980;2023-02-23T02:01:40;102641.68;;;6.13;79.82
57412;BME280;43247;52.828;-8.980;2023-02-23T02:02:39;102642.85;;;6.14;79.89
57412;BME280;43247;52.828;-8.980;2023-02-23T02:03:43;102649.13;;;6.14;79.84
57412;BME280;43247;52.828;-8.980;2023-02-23T02:04:41;102650.43;;;6.14;79.83
57412;BME280;43247;52.828;-8.980;2023-02-23T02:05:41;102651.67;;;6.14;79.83
57412;BME280;43247;52.828;-8.980;2023-02-23T02:06:44;102650.31;;;6.12;79.86
57412;BME280;43247;52.828;-8.980;2023-02-23T02:07:45;102652.55;;;6.12;79.87
57412;BME280;43247;52.828;-8.980;2023-02-23T02:08:45;102650.56;;;6.12;79.92
57412;BME280;43247;52.828;-8.980;2023-02-23T02:09:43;102653.09;;;6.12;79.92
57412;BME280;43247;52.828;-8.980;2023-02-23T02:10:42;102655.17;;;6.13;79.83
57412;BME280;43247;52.828;-8.980;2023-02-23T02:11:43;102655.44;;;6.14;79.70
57412;BME280;43247;52.828;-8.980;2023-02-23T02:12:45;102656.68;;;6.16;79.60
57412;BME280;43247;52.828;-8.980;2023-02-23T02:13:43;102654.35;;;6.16;79.51
57412;BME280;43247;52.828;-8.980;2023-02-23T02:14:43;102654.45;;;6.17;79.52
57412;BME280;43247;52.828;-8.980;2023-02-23T02:17:49;102653.77;;;6.17;79.37
57412;BME280;43247;52.828;-8.980;2023-02-23T02:18:54;102653.44;;;6.18;79.37
57412;BME280;43247;52.828;-8.980;2023-02-23T02:20:02;102652.91;;;6.17;79.42
57412;BME280;43247;52.828;-8.980;2023-02-23T02:25:54;102656.30;;;6.16;79.34
57412;BME280;43247;52.828;-8.980;2023-02-23T02:26:56;102660.15;;;6.17;79.39
57412;BME280;43247;52.828;-8.980;2023-02-23T02:29:05;102660.53;;;6.17;79.34
57412;BME280;43247;52.828;-8.980;2023-02-23T02:30:04;102658.73;;;6.16;79.36
57412;BME280;43247;52.828;-8.980;2023-02-23T02:30:58;102659.35;;;6.16;79.30
57412;BME280;43247;52.828;-8.980;2023-02-23T02:31:59;102659.57;;;6.16;79.33
57412;BME280;43247;52.828;-8.980;2023-02-23T02:34:56;102658.19;;;6.15;79.31
57412;BME280;43247;52.828;-8.980;2023-02-23T02:37:57;102664.42;;;6.12;79.35
57412;BME280;43247;52.828;-8.980;2023-02-23T02:38:54;102667.71;;;6.11;79.37
57412;BME280;43247;52.828;-8.980;2023-02-23T02:39:55;102667.99;;;6.10;79.39
57412;BME280;43247;52.828;-8.980;2023-02-23T02:40:57;102668.53;;;6.10;79.44
57412;BME280;43247;52.828;-8.980;2023-02-23T02:41:56;102669.44;;;6.09;79.40
57412;BME280;43247;52.828;-8.980;2023-02-23T02:42:58;102669.97;;;6.09;79.38
57412;BME280;43247;52.828;-8.980;2023-02-23T02:43:56;102668.09;;;6.08;79.39
57412;BME280;43247;52.828;-8.980;2023-02-23T02:44:57;102669.40;;;6.07;79.39
57412;BME280;43247;52.828;-8.980;2023-02-23T02:45:55;102670.36;;;6.07;79.41
57412;BME280;43247;52.828;-8.980;2023-02-23T02:46:55;102671.62;;;6.06;79.42
57412;BME280;43247;52.828;-8.980;2023-02-23T02:47:57;102673.30;;;6.05;79.41
57412;BME280;43247;52.828;-8.980;2023-02-23T02:48:58;102674.58;;;6.05;79.38
57412;BME280;43247;52.828;-8.980;2023-02-23T02:49:58;102676.03;;;6.05;79.39
57412;BME280;43247;52.828;-8.980;2023-02-23T02:50:55;102674.63;;;6.03;79.38
57412;BME280;43247;52.828;-8.980;2023-02-23T02:51:57;102674.05;;;6.03;79.35
57412;BME280;43247;52.828;-8.980;2023-02-23T02:52:56;102676.09;;;6.03;79.32
57412;BME280;43247;52.828;-8.980;2023-02-23T02:53:58;102674.93;;;6.02;79.29
57412;BME280;43247;52.828;-8.980;2023-02-23T02:54:57;102675.68;;;6.02;79.31
57412;BME280;43247;52.828;-8.980;2023-02-23T02:55:58;102675.56;;;6.02;79.27
57412;BME280;43247;52.828;-8.980;2023-02-23T02:56:56;102676.39;;;6.01;79.26
57412;BME280;43247;52.828;-8.980;2023-02-23T02:57:56;102678.04;;;6.01;79.19
57412;BME280;43247;52.828;-8.980;2023-02-23T02:58:55;102679.81;;;6.01;79.21
57412;BME280;43247;52.828;-8.980;2023-02-23T02:59:57;102677.83;;;6.00;79.15
57412;BME280;43247;52.828;-8.980;2023-02-23T03:00:56;102677.30;;;6.00;79.20
57412;BME280;43247;52.828;-8.980;2023-02-23T03:01:56;102678.87;;;5.99;79.15
57412;BME280;43247;52.828;-8.980;2023-02-23T03:02:55;102679.13;;;5.99;79.20
57412;BME280;43247;52.828;-8.980;2023-02-23T03:03:56;102678.44;;;5.98;79.25
57412;BME280;43247;52.828;-8.980;2023-02-23T03:04:56;102677.67;;;5.98;79.25
57412;BME280;43247;52.828;-8.980;2023-02-23T03:05:56;102676.82;;;5.97;79.29
57412;BME280;43247;52.828;-8.980;2023-02-23T03:06:58;102675.96;;;5.96;79.30
57412;BME280;43247;52.828;-8.980;2023-02-23T03:08:03;102674.97;;;5.96;79.28
57412;BME280;43247;52.828;-8.980;2023-02-23T03:09:02;102673.93;;;5.96;79.31
57412;BME280;43247;52.828;-8.980;2023-02-23T03:10:02;102673.46;;;5.95;79.27
57412;BME280;43247;52.828;-8.980;2023-02-23T03:11:01;102670.72;;;5.95;79.26
57412;BME280;43247;52.828;-8.980;2023-02-23T03:12:06;102670.57;;;5.95;79.23
57412;BME280;43247;52.828;-8.980;2023-02-23T03:13:07;102666.56;;;5.94;79.26
57412;BME280;43247;52.828;-8.980;2023-02-23T03:14:10;102666.25;;;5.94;79.25
57412;BME280;43247;52.828;-8.980;2023-02-23T03:15:06;102669.05;;;5.94;79.26
57412;BME280;43247;52.828;-8.980;2023-02-23T03:16:07;102668.02;;;5.93;79.22
57412;BME280;43247;52.828;-8.980;2023-02-23T03:17:03;102670.83;;;5.92;79.26
57412;BME280;43247;52.828;-8.980;2023-02-23T03:18:07;102670.35;;;5.92;79.20
57412;BME280;43247;52.828;-8.980;2023-02-23T03:19:09;102670.60;;;5.92;79.23
57412;BME280;43247;52.828;-8.980;2023-02-23T03:20:06;102673.34;;;5.91;79.19
57412;BME280;43247;52.828;-8.980;2023-02-23T03:21:05;102675.42;;;5.92;79.22
57412;BME280;43247;52.828;-8.980;2023-02-23T03:22:07;102675.76;;;5.91;79.22
57412;BME280;43247;52.828;-8.980;2023-02-23T03:23:07;102675.67;;;5.91;79.28
57412;BME280;43247;52.828;-8.980;2023-02-23T03:24:08;102677.43;;;5.91;79.26
57412;BME280;43247;52.828;-8.980;2023-02-23T03:25:06;102675.78;;;5.91;79.26
57412;BME280;43247;52.828;-8.980;2023-02-23T03:26:07;102675.56;;;5.91;79.26
57412;BME280;43247;52.828;-8.980;2023-02-23T03:27:04;102676.42;;;5.91;79.21
57412;BME280;43247;52.828;-8.980;2023-02-23T03:28:09;102675.08;;;5.90;79.29
57412;BME280;43247;52.828;-8.980;2023-02-23T03:29:07;102675.77;;;5.89;79.28
57412;BME280;43247;52.828;-8.980;2023-02-23T03:30:10;102673.01;;;5.89;79.29
57412;BME280;43247;52.828;-8.980;2023-02-23T03:31:09;102674.92;;;5.89;79.33
57412;BME280;43247;52.828;-8.980;2023-02-23T03:32:09;102675.20;;;5.89;79.32
57412;BME280;43247;52.828;-8.980;2023-02-23T03:33:09;102674.99;;;5.88;79.33
57412;BME280;43247;52.828;-8.980;2023-02-23T03:34:09;102674.83;;;5.88;79.43
57412;BME280;43247;52.828;-8.980;2023-02-23T03:35:07;102678.84;;;5.88;79.46
57412;BME280;43247;52.828;-8.980;2023-02-23T03:36:08;102679.34;;;5.88;79.45
57412;BME280;43247;52.828;-8.980;2023-02-23T03:37:11;102679.15;;;5.87;79.46
57412;BME280;43247;52.828;-8.980;2023-02-23T03:38:09;102680.58;;;5.87;79.47
57412;BME280;43247;52.828;-8.980;2023-02-23T03:39:13;102682.73;;;5.87;79.53
57412;BME280;43247;52.828;-8.980;2023-02-23T03:40:11;102682.41;;;5.87;79.50
57412;BME280;43247;52.828;-8.980;2023-02-23T03:41:07;102683.65;;;5.86;79.59
57412;BME280;43247;52.828;-8.980;2023-02-23T03:42:10;102681.32;;;5.87;79.63
57412;BME280;43247;52.828;-8.980;2023-02-23T03:43:09;102681.43;;;5.87;79.66
57412;BME280;43247;52.828;-8.980;2023-02-23T03:44:10;102679.91;;;5.87;79.58
57412;BME280;43247;52.828;-8.980;2023-02-23T03:45:10;102680.26;;;5.87;79.57
57412;BME280;43247;52.828;-8.980;2023-02-23T03:46:09;102682.10;;;5.87;79.55
57412;BME280;43247;52.828;-8.980;2023-02-23T03:47:09;102682.16;;;5.87;79.56
57412;BME280;43247;52.828;-8.980;2023-02-23T03:48:10;102680.90;;;5.87;79.58
57412;BME280;43247;52.828;-8.980;2023-02-23T03:49:08;102681.84;;;5.87;79.60
57412;BME280;43247;52.828;-8.980;2023-02-23T03:50:12;102679.40;;;5.87;79.58
57412;BME280;43247;52.828;-8.980;2023-02-23T03:51:10;102680.03;;;5.87;79.59
57412;BME280;43247;52.828;-8.980;2023-02-23T03:52:12;102678.17;;;5.88;79.59
57412;BME280;43247;52.828;-8.980;2023-02-23T03:53:09;102678.30;;;5.87;79.60
57412;BME280;43247;52.828;-8.980;2023-02-23T03:54:12;102680.81;;;5.88;79.60
57412;BME280;43247;52.828;-8.980;2023-02-23T03:55:15;102678.14;;;5.89;79.57
57412;BME280;43247;52.828;-8.980;2023-02-23T03:56:11;102680.43;;;5.90;79.51
57412;BME280;43247;52.828;-8.980;2023-02-23T03:57:11;102679.73;;;5.89;79.46
57412;BME280;43247;52.828;-8.980;2023-02-23T03:58:14;102682.28;;;5.90;79.48
57412;BME280;43247;52.828;-8.980;2023-02-23T03:59:11;102680.21;;;5.90;79.49
57412;BME280;43247;52.828;-8.980;2023-02-23T04:00:19;102681.43;;;5.89;79.62
57412;BME280;43247;52.828;-8.980;2023-02-23T04:01:12;102680.31;;;5.89;79.69
57412;BME280;43247;52.828;-8.980;2023-02-23T04:02:14;102681.49;;;5.87;79.54
57412;BME280;43247;52.828;-8.980;2023-02-23T04:03:15;102681.01;;;5.85;79.40
57412;BME280;43247;52.828;-8.980;2023-02-23T04:04:12;102682.54;;;5.89;79.10
57412;BME280;43247;52.828;-8.980;2023-02-23T04:05:16;102683.87;;;5.89;79.12
57412;BME280;43247;52.828;-8.980;2023-02-23T04:06:13;102683.21;;;5.91;78.91
57412;BME280;43247;52.828;-8.980;2023-02-23T04:07:17;102683.29;;;5.93;78.59
57412;BME280;43247;52.828;-8.980;2023-02-23T04:08:14;102681.20;;;5.90;78.59
57412;BME280;43247;52.828;-8.980;2023-02-23T04:09:13;102679.76;;;5.91;78.76
57412;BME280;43247;52.828;-8.980;2023-02-23T04:10:13;102681.23;;;5.93;78.52
57412;BME280;43247;52.828;-8.980;2023-02-23T04:11:19;102681.51;;;5.96;78.66
57412;BME280;43247;52.828;-8.980;2023-02-23T04:12:17;102682.54;;;5.96;78.43
57412;BME280;43247;52.828;-8.980;2023-02-23T04:13:17;102677.12;;;5.98;78.60
57412;BME280;43247;52.828;-8.980;2023-02-23T04:14:18;102676.74;;;5.97;78.38
57412;BME280;43247;52.828;-8.980;2023-02-23T04:15:20;102676.53;;;5.98;78.65
57412;BME280;43247;52.828;-8.980;2023-02-23T04:16:15;102678.47;;;5.99;78.51
57412;BME280;43247;52.828;-8.980;2023-02-23T04:17:16;102674.41;;;6.00;78.54
57412;BME280;43247;52.828;-8.980;2023-02-23T04:18:17;102673.41;;;5.99;78.47
57412;BME280;43247;52.828;-8.980;2023-02-23T04:19:16;102673.02;;;5.98;78.71
57412;BME280;43247;52.828;-8.980;2023-02-23T04:20:16;102673.62;;;5.98;78.71
57412;BME280;43247;52.828;-8.980;2023-02-23T04:21:16;102675.04;;;5.98;78.71
57412;BME280;43247;52.828;-8.980;2023-02-23T04:22:16;102675.78;;;6.00;78.79
57412;BME280;43247;52.828;-8.980;2023-02-23T04:23:17;102675.48;;;6.02;78.70
57412;BME280;43247;52.828;-8.980;2023-02-23T04:24:17;102676.95;;;6.01;78.67
57412;BME280;43247;52.828;-8.980;2023-02-23T04:25:17;102677.32;;;6.02;78.64
57412;BME280;43247;52.828;-8.980;2023-02-23T04:26:17;102679.33;;;6.03;78.73
57412;BME280;43247;52.828;-8.980;2023-02-23T04:27:18;102676.98;;;6.02;78.67
57412;BME280;43247;52.828;-8.980;2023-02-23T04:28:17;102676.75;;;6.02;78.72
57412;BME280;43247;52.828;-8.980;2023-02-23T04:29:18;102676.42;;;6.03;78.63
57412;BME280;43247;52.828;-8.980;2023-02-23T04:30:18;102677.59;;;6.03;78.63
57412;BME280;43247;52.828;-8.980;2023-02-23T04:31:18;102679.97;;;6.04;78.66
57412;BME280;43247;52.828;-8.980;2023-02-23T04:32:19;102679.85;;;6.05;78.70
57412;BME280;43247;52.828;-8.980;2023-02-23T04:33:19;102678.96;;;6.04;78.76
57412;BME280;43247;52.828;-8.980;2023-02-23T04:34:19;102680.89;;;6.05;78.87
57412;BME280;43247;52.828;-8.980;2023-02-23T04:35:19;102681.27;;;6.05;78.79
57412;BME280;43247;52.828;-8.980;2023-02-23T04:36:19;102680.81;;;6.04;78.80
57412;BME280;43247;52.828;-8.980;2023-02-23T04:37:19;102680.75;;;6.05;78.78
57412;BME280;43247;52.828;-8.980;2023-02-23T04:38:20;102680.60;;;6.05;78.82
57412;BME280;43247;52.828;-8.980;2023-02-23T04:39:20;102676.71;;;6.05;78.76
57412;BME280;43247;52.828;-8.980;2023-02-23T04:40:20;102676.15;;;6.04;78.78
57412;BME280;43247;52.828;-8.980;2023-02-23T04:41:20;102676.73;;;6.03;78.82
57412;BME280;43247;52.828;-8.980;2023-02-23T04:42:20;102675.71;;;6.01;78.78
57412;BME280;43247;52.828;-8.980;2023-02-23T04:43:21;102673.32;;;6.00;78.67
57412;BME280;43247;52.828;-8.980;2023-02-23T04:44:21;102671.44;;;5.98;78.50
57412;BME280;43247;52.828;-8.980;2023-02-23T04:45:22;102668.62;;;5.99;78.33
57412;BME280;43247;52.828;-8.980;2023-02-23T04:46:21;102668.16;;;5.99;78.46
57412;BME280;43247;52.828;-8.980;2023-02-23T04:47:21;102666.53;;;5.99;78.53
57412;BME280;43247;52.828;-8.980;2023-02-23T04:48:22;102665.88;;;5.99;78.49
57412;BME280;43247;52.828;-8.980;2023-02-23T04:49:22;102665.93;;;5.99;78.39
57412;BME280;43247;52.828;-8.980;2023-02-23T04:50:22;102665.21;;;5.98;78.60
57412;BME280;43247;52.828;-8.980;2023-02-23T04:51:22;102663.02;;;5.98;78.63
57412;BME280;43247;52.828;-8.980;2023-02-23T04:52:22;102661.03;;;5.98;78.57
57412;BME280;43247;52.828;-8.980;2023-02-23T04:53:23;102660.72;;;5.99;78.68
57412;BME280;43247;52.828;-8.980;2023-02-23T04:54:23;102659.09;;;5.99;78.68
57412;BME280;43247;52.828;-8.980;2023-02-23T04:55:24;102659.40;;;5.98;78.54
57412;BME280;43247;52.828;-8.980;2023-02-23T04:56:23;102660.67;;;5.97;78.49
57412;BME280;43247;52.828;-8.980;2023-02-23T04:57:23;102661.80;;;5.98;78.58
57412;BME280;43247;52.828;-8.980;2023-02-23T04:58:24;102664.21;;;5.98;78.70
57412;BME280;43247;52.828;-8.980;2023-02-23T04:59:24;102664.39;;;5.97;78.74
57412;BME280;43247;52.828;-8.980;2023-02-23T05:00:25;102665.01;;;5.97;78.74
57412;BME280;43247;52.828;-8.980;2023-02-23T05:01:24;102665.62;;;5.98;78.74
57412;BME280;43247;52.828;-8.980;2023-02-23T05:02:25;102666.27;;;5.98;78.71
57412;BME280;43247;52.828;-8.980;2023-02-23T05:03:25;102665.60;;;5.98;78.76
57412;BME280;43247;52.828;-8.980;2023-02-23T05:04:25;102663.45;;;5.98;78.81
57412;BME280;43247;52.828;-8.980;2023-02-23T05:05:25;102664.27;;;5.98;78.90
57412;BME280;43247;52.828;-8.980;2023-02-23T05:06:25;102666.17;;;5.98;78.96
57412;BME280;43247;52.828;-8.980;2023-02-23T05:07:26;102665.58;;;5.98;79.02
57412;BME280;43247;52.828;-8.980;2023-02-23T05:08:27;102669.96;;;5.98;78.99
57412;BME280;43247;52.828;-8.980;2023-02-23T05:09:27;102671.09;;;5.98;78.99
57412;BME280;43247;52.828;-8.980;2023-02-23T05:10:28;102675.98;;;5.98;78.96
57412;BME280;43247;52.828;-8.980;2023-02-23T05:11:28;102678.58;;;5.98;79.00
57412;BME280;43247;52.828;-8.980;2023-02-23T05:12:28;102680.97;;;5.97;79.02
57412;BME280;43247;52.828;-8.980;2023-02-23T05:13:28;102679.70;;;5.96;79.06
57412;BME280;43247;52.828;-8.980;2023-02-23T05:14:29;102680.57;;;5.96;79.15
57412;BME280;43247;52.828;-8.980;2023-02-23T05:15:29;102678.31;;;5.95;79.13
57412;BME280;43247;52.828;-8.980;2023-02-23T05:16:30;102674.64;;;5.95;79.12
57412;BME280;43247;52.828;-8.980;2023-02-23T05:17:30;102671.57;;;5.94;79.16
57412;BME280;43247;52.828;-8.980;2023-02-23T05:18:30;102671.44;;;5.93;79.16
57412;BME280;43247;52.828;-8.980;2023-02-23T05:19:30;102674.09;;;5.92;79.12
57412;BME280;43247;52.828;-8.980;2023-02-23T05:20:30;102676.09;;;5.92;79.05
57412;BME280;43247;52.828;-8.980;2023-02-23T05:21:31;102680.73;;;5.91;79.11
57412;BME280;43247;52.828;-8.980;2023-02-23T05:22:31;102686.05;;;5.91;79.01
57412;BME280;43247;52.828;-8.980;2023-02-23T05:23:32;102687.45;;;5.90;78.98
57412;BME280;43247;52.828;-8.980;2023-02-23T05:24:32;102687.97;;;5.89;78.90
57412;BME280;43247;52.828;-8.980;2023-02-23T05:25:32;102687.00;;;5.88;78.92
57412;BME280;43247;52.828;-8.980;2023-02-23T05:26:33;102684.67;;;5.87;78.90
57412;BME280;43247;52.828;-8.980;2023-02-23T05:27:32;102683.63;;;5.85;78.86